createdAt,value
2017-08-20T00:00:48.372Z,958.13
2017-08-20T00:01:48.362Z,958.15
2017-08-20T00:02:48.354Z,958.18
2017-08-20T00:03:48.346Z,958.2
2017-08-20T00:04:48.335Z,958.26
2017-08-20T00:05:48.328Z,958.25
2017-08-20T00:06:48.320Z,958.25
2017-08-20T00:07:48.310Z,958.29
2017-08-20T00:08:48.302Z,958.3
2017-08-20T00:09:48.293Z,958.36
2017-08-20T00:10:48.284Z,958.37
2017-08-20T00:11:48.276Z,958.38
2017-08-20T00:12:48.268Z,958.42
2017-08-20T00:13:48.260Z,958.48
2017-08-20T00:14:48.259Z,958.49
2017-08-20T00:15:48.241Z,958.46
2017-08-20T00:16:48.233Z,958.44
2017-08-20T00:17:48.225Z,958.44
2017-08-20T00:18:48.214Z,958.43
2017-08-20T00:19:48.207Z,958.46
2017-08-20T00:20:48.199Z,958.43
2017-08-20T00:21:48.191Z,958.38
2017-08-20T00:22:48.181Z,958.37
2017-08-20T00:23:48.172Z,958.35
2017-08-20T00:24:48.165Z,958.3
2017-08-20T00:25:48.154Z,958.28
2017-08-20T00:26:48.147Z,958.34
2017-08-20T00:27:48.137Z,958.26
2017-08-20T00:28:48.128Z,958.29
2017-08-20T00:29:48.120Z,958.26
2017-08-20T00:30:48.112Z,958.23
2017-08-20T00:31:48.103Z,958.27
2017-08-20T00:32:48.094Z,958.27
2017-08-20T00:33:48.085Z,958.29
2017-08-20T00:34:48.110Z,958.23
2017-08-20T00:35:48.069Z,958.24
2017-08-20T00:36:48.059Z,958.2
2017-08-20T00:37:48.066Z,958.22
2017-08-20T00:38:48.043Z,958.19
2017-08-20T00:39:48.033Z,958.19
2017-08-20T00:40:48.024Z,958.2
2017-08-20T00:41:48.015Z,958.19
2017-08-20T00:42:48.008Z,958.2
2017-08-20T00:43:48.000Z,958.13
2017-08-20T00:44:47.990Z,958.18
2017-08-20T00:45:47.981Z,958.08
2017-08-20T00:46:47.971Z,958.16
2017-08-20T00:47:47.962Z,958.16
2017-08-20T00:48:47.953Z,958.13
2017-08-20T00:49:47.945Z,958.07
2017-08-20T00:50:47.935Z,958.12
2017-08-20T00:51:47.926Z,958.11
2017-08-20T00:52:47.918Z,958.08
2017-08-20T00:53:47.910Z,958.1
2017-08-20T00:54:47.903Z,958.12
2017-08-20T00:55:47.894Z,958.11
2017-08-20T00:56:47.882Z,958.08
2017-08-20T00:57:47.874Z,958.09
2017-08-20T00:58:47.863Z,958.1
2017-08-20T00:59:47.855Z,958.09
2017-08-20T01:00:47.846Z,958.04
2017-08-20T01:01:47.838Z,958.02
2017-08-20T01:02:47.849Z,958.02
2017-08-20T01:03:47.820Z,958.07
2017-08-20T01:04:47.811Z,958.05
2017-08-20T01:05:47.803Z,958.08
2017-08-20T01:06:47.798Z,958.06
2017-08-20T01:07:47.785Z,958.12
2017-08-20T01:08:47.777Z,958.09
2017-08-20T01:09:47.768Z,958.06
2017-08-20T01:10:47.758Z,958.07
2017-08-20T01:11:47.749Z,958.11
2017-08-20T01:12:47.741Z,958.14
2017-08-20T01:13:47.732Z,958.19
2017-08-20T01:14:47.732Z,958.16
2017-08-20T01:15:47.714Z,958.17
2017-08-20T01:16:47.704Z,958.21
2017-08-20T01:17:47.697Z,958.17
2017-08-20T01:18:47.688Z,958.13
2017-08-20T01:19:47.678Z,958.13
2017-08-20T01:20:47.667Z,958.21
2017-08-20T01:21:47.659Z,958.2
2017-08-20T01:22:47.651Z,958.18
2017-08-20T01:23:47.643Z,958.21
2017-08-20T01:24:47.632Z,958.21
2017-08-20T01:25:47.623Z,958.17
2017-08-20T01:26:47.614Z,958.14
2017-08-20T01:27:47.620Z,958.12
2017-08-20T01:28:47.597Z,958.14
2017-08-20T01:29:47.589Z,958.13
2017-08-20T01:30:47.600Z,958.13
2017-08-20T01:31:47.569Z,958.13
2017-08-20T01:32:47.560Z,958.17
2017-08-20T01:33:47.554Z,958.16
2017-08-20T01:34:47.542Z,958.2
2017-08-20T01:35:47.531Z,958.16
2017-08-20T01:36:47.524Z,958.13
2017-08-20T01:37:47.515Z,958.14
2017-08-20T01:38:47.504Z,958.15
2017-08-20T01:39:47.497Z,958.14
2017-08-20T01:40:47.493Z,958.15
2017-08-20T01:41:47.479Z,958.2
2017-08-20T01:42:47.470Z,958.16
2017-08-20T01:43:47.460Z,958.18
2017-08-20T01:44:47.451Z,958.18
2017-08-20T01:45:47.443Z,958.21
2017-08-20T01:46:47.433Z,958.21
2017-08-20T01:47:47.423Z,958.17
2017-08-20T01:48:47.416Z,958.21
2017-08-20T01:49:47.419Z,958.23
2017-08-20T01:50:47.396Z,958.23
2017-08-20T01:51:47.388Z,958.26
2017-08-20T01:52:47.377Z,958.29
2017-08-20T01:53:47.367Z,958.27
2017-08-20T01:54:47.359Z,958.38
2017-08-20T01:55:47.353Z,958.37
2017-08-20T01:56:47.342Z,958.37
2017-08-20T01:57:47.333Z,958.38
2017-08-20T01:58:47.324Z,958.37
2017-08-20T01:59:47.314Z,958.4
2017-08-20T02:00:47.304Z,958.35
2017-08-20T02:01:47.296Z,958.32
2017-08-20T02:02:47.288Z,958.39
2017-08-20T02:03:47.279Z,958.32
2017-08-20T02:04:47.289Z,958.35
2017-08-20T02:05:47.259Z,958.37
2017-08-20T02:06:47.251Z,958.32
2017-08-20T02:07:47.253Z,958.33
2017-08-20T02:08:47.232Z,958.33
2017-08-20T02:09:47.226Z,958.35
2017-08-20T02:10:47.222Z,958.31
2017-08-20T02:11:47.204Z,958.31
2017-08-20T02:12:47.194Z,958.36
2017-08-20T02:13:47.190Z,958.35
2017-08-20T02:14:47.177Z,958.35
2017-08-20T02:15:47.169Z,958.36
2017-08-20T02:16:47.162Z,958.35
2017-08-20T02:17:47.151Z,958.38
2017-08-20T02:18:47.142Z,958.4
2017-08-20T02:19:47.131Z,958.44
2017-08-20T02:20:47.122Z,958.41
2017-08-20T02:21:47.114Z,958.4
2017-08-20T02:22:47.105Z,958.36
2017-08-20T02:23:47.096Z,958.43
2017-08-20T02:24:47.086Z,958.37
2017-08-20T02:25:47.079Z,958.36
2017-08-20T02:26:47.068Z,958.35
2017-08-20T02:27:47.058Z,958.38
2017-08-20T02:28:47.050Z,958.37
2017-08-20T02:29:47.042Z,958.35
2017-08-20T02:30:47.038Z,958.39
2017-08-20T02:31:47.024Z,958.35
2017-08-20T02:32:47.013Z,958.37
2017-08-20T02:33:47.003Z,958.39
2017-08-20T02:34:46.994Z,958.38
2017-08-20T02:35:46.986Z,958.38
2017-08-20T02:36:46.978Z,958.37
2017-08-20T02:37:46.987Z,958.36
2017-08-20T02:38:46.957Z,958.41
2017-08-20T02:39:46.948Z,958.41
2017-08-20T02:40:46.940Z,958.42
2017-08-20T02:41:46.931Z,958.4
2017-08-20T02:42:46.927Z,958.42
2017-08-20T02:43:46.922Z,958.45
2017-08-20T02:44:46.904Z,958.46
2017-08-20T02:45:46.896Z,958.48
2017-08-20T02:46:46.887Z,958.47
2017-08-20T02:47:46.877Z,958.49
2017-08-20T02:48:46.871Z,958.51
2017-08-20T02:49:46.859Z,958.53
2017-08-20T02:50:46.854Z,958.53
2017-08-20T02:51:46.856Z,958.53
2017-08-20T02:52:46.831Z,958.51
2017-08-20T02:53:46.824Z,958.49
2017-08-20T02:54:46.820Z,958.5
2017-08-20T02:55:46.822Z,958.47
2017-08-20T02:56:46.794Z,958.46
2017-08-20T02:57:46.792Z,958.47
2017-08-20T02:58:46.778Z,958.45
2017-08-20T02:59:46.767Z,958.45
2017-08-20T03:00:46.757Z,958.49
2017-08-20T03:01:46.748Z,958.46
2017-08-20T03:02:46.740Z,958.5
2017-08-20T03:03:46.731Z,958.49
2017-08-20T03:04:46.722Z,958.5
2017-08-20T03:05:46.712Z,958.49
2017-08-20T03:06:46.703Z,958.5
2017-08-20T03:07:46.694Z,958.51
2017-08-20T03:08:46.685Z,958.49
2017-08-20T03:09:46.678Z,958.53
2017-08-20T03:10:46.668Z,958.54
2017-08-20T03:11:46.658Z,958.53
2017-08-20T03:12:46.650Z,958.57
2017-08-20T03:13:46.641Z,958.56
2017-08-20T03:14:46.631Z,958.57
2017-08-20T03:15:46.622Z,958.59
2017-08-20T03:16:46.615Z,958.63
2017-08-20T03:17:46.602Z,958.63
2017-08-20T03:18:46.595Z,958.64
2017-08-20T03:19:46.585Z,958.68
2017-08-20T03:20:46.577Z,958.7
2017-08-20T03:21:46.567Z,958.72
2017-08-20T03:22:46.560Z,958.7
2017-08-20T03:23:46.550Z,958.76
2017-08-20T03:24:46.540Z,958.79
2017-08-20T03:25:46.532Z,958.83
2017-08-20T03:26:46.523Z,958.84
2017-08-20T03:27:46.513Z,958.84
2017-08-20T03:28:46.505Z,958.86
2017-08-20T03:29:46.496Z,958.85
2017-08-20T03:30:46.490Z,958.86
2017-08-20T03:31:46.480Z,958.88
2017-08-20T03:32:46.470Z,958.86
2017-08-20T03:33:46.462Z,958.85
2017-08-20T03:34:46.453Z,958.87
2017-08-20T03:35:46.445Z,958.92
2017-08-20T03:36:46.456Z,958.94
2017-08-20T03:37:46.427Z,958.93
2017-08-20T03:38:46.419Z,958.94
2017-08-20T03:39:46.409Z,958.97
2017-08-20T03:40:46.402Z,958.93
2017-08-20T03:41:46.399Z,958.97
2017-08-20T03:42:46.383Z,958.95
2017-08-20T03:43:46.376Z,958.93
2017-08-20T03:44:46.367Z,958.92
2017-08-20T03:45:46.359Z,958.94
2017-08-20T03:46:46.350Z,958.95
2017-08-20T03:47:46.345Z,958.95
2017-08-20T03:48:46.333Z,958.93
2017-08-20T03:49:46.325Z,958.92
2017-08-20T03:50:46.315Z,958.92
2017-08-20T03:51:46.309Z,958.9
2017-08-20T03:52:46.304Z,958.95
2017-08-20T03:53:46.293Z,958.93
2017-08-20T03:54:46.283Z,958.86
2017-08-20T03:55:46.276Z,958.89
2017-08-20T03:56:46.267Z,958.84
2017-08-20T03:57:46.257Z,958.87
2017-08-20T03:58:46.251Z,958.84
2017-08-20T03:59:46.243Z,958.84
2017-08-20T04:00:46.234Z,958.81
2017-08-20T04:01:46.227Z,958.81
2017-08-20T04:02:46.218Z,958.79
2017-08-20T04:03:46.210Z,958.79
2017-08-20T04:04:46.203Z,958.8
2017-08-20T04:05:46.193Z,958.81
2017-08-20T04:06:46.185Z,958.84
2017-08-20T04:07:46.177Z,958.78
2017-08-20T04:08:46.169Z,958.82
2017-08-20T04:09:46.160Z,958.82
2017-08-20T04:10:46.153Z,958.83
2017-08-20T04:11:46.146Z,958.79
2017-08-20T04:12:46.136Z,958.83
2017-08-20T04:13:46.143Z,958.83
2017-08-20T04:14:46.121Z,958.81
2017-08-20T04:15:46.111Z,958.78
2017-08-20T04:16:46.103Z,958.8
2017-08-20T04:17:46.096Z,958.85
2017-08-20T04:18:46.088Z,958.83
2017-08-20T04:19:46.084Z,958.8
2017-08-20T04:20:46.073Z,958.83
2017-08-20T04:21:46.065Z,958.85
2017-08-20T04:22:46.057Z,958.85
2017-08-20T04:23:46.049Z,958.83
2017-08-20T04:24:46.041Z,958.85
2017-08-20T04:25:46.036Z,958.84
2017-08-20T04:26:46.024Z,958.87
2017-08-20T04:27:46.016Z,958.89
2017-08-20T04:28:46.008Z,958.84
2017-08-20T04:29:46.022Z,958.84
2017-08-20T04:30:45.990Z,958.83
2017-08-20T04:31:45.984Z,958.82
2017-08-20T04:32:45.976Z,958.79
2017-08-20T04:33:45.968Z,958.79
2017-08-20T04:34:45.960Z,958.81
2017-08-20T04:35:45.953Z,958.82
2017-08-20T04:36:45.945Z,958.81
2017-08-20T04:37:45.941Z,958.85
2017-08-20T04:38:45.928Z,958.83
2017-08-20T04:39:45.921Z,958.85
2017-08-20T04:40:45.912Z,958.88
2017-08-20T04:41:45.905Z,958.85
2017-08-20T04:42:45.897Z,958.89
2017-08-20T04:43:45.888Z,958.89
2017-08-20T04:44:45.881Z,958.85
2017-08-20T04:45:45.872Z,958.9
2017-08-20T04:46:45.865Z,958.88
2017-08-20T04:47:45.857Z,958.89
2017-08-20T04:48:45.849Z,958.86
2017-08-20T04:49:45.841Z,958.89
2017-08-20T04:50:45.833Z,958.9
2017-08-20T04:51:45.841Z,958.89
2017-08-20T04:52:45.817Z,958.9
2017-08-20T04:53:45.811Z,958.87
2017-08-20T04:54:45.803Z,958.93
2017-08-20T04:55:45.808Z,958.92
2017-08-20T04:56:45.786Z,958.91
2017-08-20T04:57:45.782Z,958.95
2017-08-20T04:58:45.771Z,958.97
2017-08-20T04:59:45.763Z,958.98
2017-08-20T05:00:45.756Z,958.98
2017-08-20T05:01:45.749Z,959
2017-08-20T05:02:45.743Z,959.01
2017-08-20T05:03:45.733Z,959.03
2017-08-20T05:04:45.728Z,959.04
2017-08-20T05:05:45.719Z,959.05
2017-08-20T05:06:45.712Z,959.04
2017-08-20T05:07:45.704Z,959.05
2017-08-20T05:08:45.700Z,959.03
2017-08-20T05:09:45.703Z,959.02
2017-08-20T05:10:45.680Z,959.04
2017-08-20T05:11:45.675Z,959.04
2017-08-20T05:12:45.667Z,959.07
2017-08-20T05:13:45.678Z,959.06
2017-08-20T05:14:45.653Z,959.08
2017-08-20T05:15:45.646Z,959.05
2017-08-20T05:16:45.639Z,959.13
2017-08-20T05:17:45.635Z,959.07
2017-08-20T05:18:45.625Z,959.13
2017-08-20T05:19:45.618Z,959.09
2017-08-20T05:20:45.611Z,959.06
2017-08-20T05:21:45.605Z,959.11
2017-08-20T05:22:45.597Z,959.1
2017-08-20T05:23:45.589Z,959.15
2017-08-20T05:24:45.583Z,959.15
2017-08-20T05:25:45.576Z,959.14
2017-08-20T05:26:45.570Z,959.17
2017-08-20T05:27:45.562Z,959.17
2017-08-20T05:28:45.570Z,959.14
2017-08-20T05:29:45.547Z,959.19
2017-08-20T05:30:45.540Z,959.21
2017-08-20T05:31:45.535Z,959.19
2017-08-20T05:32:45.526Z,959.21
2017-08-20T05:33:45.527Z,959.19
2017-08-20T05:34:45.513Z,959.16
2017-08-20T05:35:45.506Z,959.2
2017-08-20T05:36:45.498Z,959.22
2017-08-20T05:37:45.492Z,959.19
2017-08-20T05:38:45.487Z,959.18
2017-08-20T05:39:45.479Z,959.18
2017-08-20T05:40:45.472Z,959.19
2017-08-20T05:41:45.466Z,959.19
2017-08-20T05:42:45.460Z,959.17
2017-08-20T05:43:45.450Z,959.21
2017-08-20T05:44:45.448Z,959.23
2017-08-20T05:45:45.438Z,959.23
2017-08-20T05:46:45.432Z,959.25
2017-08-20T05:47:45.425Z,959.22
2017-08-20T05:48:45.420Z,959.25
2017-08-20T05:49:45.412Z,959.22
2017-08-20T05:50:45.406Z,959.25
2017-08-20T05:51:45.399Z,959.22
2017-08-20T05:52:45.394Z,959.23
2017-08-20T05:53:45.387Z,959.23
2017-08-20T05:54:45.379Z,959.28
2017-08-20T05:55:45.373Z,959.31
2017-08-20T05:56:45.368Z,959.3
2017-08-20T05:57:45.364Z,959.34
2017-08-20T05:58:45.353Z,959.35
2017-08-20T05:59:45.349Z,959.36
2017-08-20T06:00:45.342Z,959.36
2017-08-20T06:01:45.334Z,959.38
2017-08-20T06:02:45.329Z,959.36
2017-08-20T06:03:45.322Z,959.33
2017-08-20T06:04:45.316Z,959.37
2017-08-20T06:05:45.309Z,959.38
2017-08-20T06:06:45.302Z,959.37
2017-08-20T06:07:45.297Z,959.37
2017-08-20T06:08:45.379Z,959.4
2017-08-20T06:09:45.284Z,959.42
2017-08-20T06:10:45.277Z,959.47
2017-08-20T06:11:45.271Z,959.49
2017-08-20T06:12:45.265Z,959.42
2017-08-20T06:13:45.258Z,959.45
2017-08-20T06:14:45.252Z,959.39
2017-08-20T06:15:45.255Z,959.4
2017-08-20T06:16:45.247Z,959.37
2017-08-20T06:17:45.237Z,959.41
2017-08-20T06:18:45.248Z,959.39
2017-08-20T06:19:45.222Z,959.44
2017-08-20T06:20:45.216Z,959.44
2017-08-20T06:21:45.229Z,959.42
2017-08-20T06:22:45.203Z,959.44
2017-08-20T06:23:45.197Z,959.44
2017-08-20T06:24:45.193Z,959.46
2017-08-20T06:25:45.183Z,959.44
2017-08-20T06:26:45.178Z,959.44
2017-08-20T06:27:45.171Z,959.48
2017-08-20T06:28:45.164Z,959.48
2017-08-20T06:29:45.160Z,959.46
2017-08-20T06:30:45.156Z,959.5
2017-08-20T06:31:45.146Z,959.51
2017-08-20T06:32:45.140Z,959.53
2017-08-20T06:33:45.133Z,959.56
2017-08-20T06:34:45.168Z,959.54
2017-08-20T06:35:45.121Z,959.56
2017-08-20T06:36:45.113Z,959.55
2017-08-20T06:37:45.108Z,959.5
2017-08-20T06:38:45.103Z,959.56
2017-08-20T06:39:45.097Z,959.54
2017-08-20T06:40:45.088Z,959.54
2017-08-20T06:41:45.110Z,959.49
2017-08-20T06:42:45.101Z,959.51
2017-08-20T06:43:45.088Z,959.54
2017-08-20T06:44:45.067Z,959.6
2017-08-20T06:45:45.060Z,959.57
2017-08-20T06:46:45.055Z,959.59
2017-08-20T06:47:45.049Z,959.61
2017-08-20T06:48:45.044Z,959.55
2017-08-20T06:49:45.038Z,959.58
2017-08-20T06:50:45.033Z,959.59
2017-08-20T06:51:45.048Z,959.61
2017-08-20T06:52:45.022Z,959.59
2017-08-20T06:53:45.016Z,959.58
2017-08-20T06:54:45.013Z,959.61
2017-08-20T06:55:45.007Z,959.64
2017-08-20T06:56:45.002Z,959.62
2017-08-20T06:57:44.996Z,959.66
2017-08-20T06:58:44.993Z,959.63
2017-08-20T06:59:44.988Z,959.62
2017-08-20T07:00:44.982Z,959.65
2017-08-20T07:01:44.977Z,959.66
2017-08-20T07:02:44.980Z,959.65
2017-08-20T07:03:44.970Z,959.71
2017-08-20T07:04:44.968Z,959.68
2017-08-20T07:05:44.958Z,959.68
2017-08-20T07:06:44.977Z,959.74
2017-08-20T07:07:44.948Z,959.77
2017-08-20T07:08:44.944Z,959.76
2017-08-20T07:09:44.948Z,959.77
2017-08-20T07:10:44.956Z,959.81
2017-08-20T07:11:44.929Z,959.82
2017-08-20T07:12:44.923Z,959.86
2017-08-20T07:13:44.920Z,959.83
2017-08-20T07:14:44.915Z,959.82
2017-08-20T07:15:44.913Z,959.78
2017-08-20T07:16:44.906Z,959.8
2017-08-20T07:17:44.903Z,959.8
2017-08-20T07:18:44.896Z,959.82
2017-08-20T07:19:44.893Z,959.85
2017-08-20T07:20:44.889Z,959.81
2017-08-20T07:21:44.883Z,959.9
2017-08-20T07:22:44.877Z,960.22
2017-08-20T07:23:44.875Z,960.06
2017-08-20T07:24:44.870Z,959.97
2017-08-20T07:25:44.868Z,960.13
2017-08-20T07:26:44.863Z,960.2
2017-08-20T07:27:44.859Z,960.7
2017-08-20T07:28:44.854Z,960.6
2017-08-20T07:29:44.850Z,961.32
2017-08-20T07:30:44.847Z,960.92
2017-08-20T07:31:44.841Z,960.17
2017-08-20T07:32:44.839Z,959.94
2017-08-20T07:33:44.835Z,959.88
2017-08-20T07:34:44.836Z,959.86
2017-08-20T07:35:44.828Z,959.87
2017-08-20T07:36:44.823Z,959.88
2017-08-20T07:37:44.821Z,959.88
2017-08-20T07:38:44.818Z,959.88
2017-08-20T07:39:44.815Z,959.87
2017-08-20T07:40:44.812Z,959.89
2017-08-20T07:41:44.809Z,959.9
2017-08-20T07:42:44.806Z,959.91
2017-08-20T07:43:44.804Z,959.93
2017-08-20T07:44:44.802Z,959.89
2017-08-20T07:45:44.808Z,959.94
2017-08-20T07:46:44.796Z,959.94
2017-08-20T07:47:44.794Z,959.92
2017-08-20T07:48:44.808Z,959.93
2017-08-20T07:49:44.790Z,959.91
2017-08-20T07:50:44.787Z,959.92
2017-08-20T07:51:44.785Z,959.94
2017-08-20T07:52:44.784Z,959.9
2017-08-20T07:53:44.781Z,959.92
2017-08-20T07:54:44.780Z,959.88
2017-08-20T07:55:44.776Z,959.89
2017-08-20T07:56:44.776Z,959.85
2017-08-20T07:57:44.773Z,959.85
2017-08-20T07:58:44.770Z,959.83
2017-08-20T07:59:44.767Z,959.81
2017-08-20T08:00:44.766Z,959.82
2017-08-20T08:01:44.767Z,959.85
2017-08-20T08:02:44.762Z,959.76
2017-08-20T08:03:44.767Z,959.75
2017-08-20T08:04:44.757Z,959.76
2017-08-20T08:05:44.755Z,959.78
2017-08-20T08:06:44.751Z,959.81
2017-08-20T08:07:44.751Z,959.78
2017-08-20T08:08:44.746Z,959.81
2017-08-20T08:09:44.743Z,959.84
2017-08-20T08:10:44.743Z,959.81
2017-08-20T08:11:44.740Z,959.81
2017-08-20T08:12:44.736Z,959.83
2017-08-20T08:13:44.733Z,959.8
2017-08-20T08:14:44.731Z,959.77
2017-08-20T08:15:44.738Z,959.75
2017-08-20T08:16:44.727Z,959.77
2017-08-20T08:17:44.724Z,959.8
2017-08-20T08:18:44.721Z,959.78
2017-08-20T08:19:44.719Z,959.79
2017-08-20T08:20:44.716Z,959.81
2017-08-20T08:21:44.712Z,959.8
2017-08-20T08:22:44.711Z,959.87
2017-08-20T08:23:44.709Z,959.84
2017-08-20T08:24:44.706Z,959.89
2017-08-20T08:25:44.703Z,959.86
2017-08-20T08:26:44.700Z,959.92
2017-08-20T08:27:44.699Z,959.85
2017-08-20T08:28:44.693Z,959.82
2017-08-20T08:29:44.712Z,959.85
2017-08-20T08:30:44.690Z,959.81
2017-08-20T08:31:44.686Z,959.86
2017-08-20T08:32:44.683Z,959.83
2017-08-20T08:33:44.680Z,959.78
2017-08-20T08:34:44.678Z,959.79
2017-08-20T08:35:44.672Z,959.87
2017-08-20T08:36:44.670Z,959.88
2017-08-20T08:37:44.668Z,959.85
2017-08-20T08:38:44.665Z,959.9
2017-08-20T08:39:44.661Z,959.92
2017-08-20T08:40:44.658Z,959.86
2017-08-20T08:41:44.675Z,959.91
2017-08-20T08:42:44.652Z,959.84
2017-08-20T08:43:44.650Z,959.84
2017-08-20T08:44:44.647Z,959.92
2017-08-20T08:45:44.644Z,959.82
2017-08-20T08:46:44.662Z,959.94
2017-08-20T08:47:44.639Z,959.92
2017-08-20T08:48:44.637Z,959.9
2017-08-20T08:49:44.639Z,959.88
2017-08-20T08:50:44.629Z,959.83
2017-08-20T08:51:44.644Z,959.88
2017-08-20T08:52:44.626Z,959.87
2017-08-20T08:53:44.622Z,959.87
2017-08-20T08:54:44.620Z,959.84
2017-08-20T08:55:44.618Z,959.82
2017-08-20T08:56:44.615Z,959.82
2017-08-20T08:57:44.613Z,959.82
2017-08-20T08:58:44.610Z,959.76
2017-08-20T08:59:44.623Z,959.82
2017-08-20T09:00:44.629Z,959.8
2017-08-20T09:01:44.605Z,959.77
2017-08-20T09:02:44.604Z,959.75
2017-08-20T09:03:44.602Z,959.75
2017-08-20T09:04:44.620Z,959.76
2017-08-20T09:05:44.597Z,959.77
2017-08-20T09:06:44.594Z,959.79
2017-08-20T09:07:44.594Z,959.86
2017-08-20T09:08:44.592Z,959.85
2017-08-20T09:09:44.591Z,959.82
2017-08-20T09:10:44.587Z,959.87
2017-08-20T09:11:44.593Z,959.85
2017-08-20T09:12:44.582Z,959.83
2017-08-20T09:13:44.581Z,959.86
2017-08-20T09:14:44.578Z,959.88
2017-08-20T09:15:44.576Z,959.87
2017-08-20T09:16:44.573Z,959.85
2017-08-20T09:17:44.571Z,959.89
2017-08-20T09:18:44.575Z,959.89
2017-08-20T09:19:44.568Z,959.88
2017-08-20T09:20:44.563Z,959.84
2017-08-20T09:21:44.564Z,959.89
2017-08-20T09:22:44.558Z,959.84
2017-08-20T09:23:44.556Z,959.87
2017-08-20T09:24:44.553Z,959.91
2017-08-20T09:25:44.552Z,959.89
2017-08-20T09:26:44.549Z,959.88
2017-08-20T09:27:44.548Z,959.84
2017-08-20T09:28:44.546Z,959.86
2017-08-20T09:29:44.546Z,959.85
2017-08-20T09:30:44.543Z,959.86
2017-08-20T09:31:44.542Z,959.88
2017-08-20T09:32:44.540Z,959.86
2017-08-20T09:33:44.538Z,959.88
2017-08-20T09:34:44.537Z,959.84
2017-08-20T09:35:44.536Z,959.89
2017-08-20T09:36:44.536Z,959.91
2017-08-20T09:37:44.546Z,959.84
2017-08-20T09:38:44.533Z,959.82
2017-08-20T09:39:44.531Z,959.84
2017-08-20T09:40:44.532Z,959.76
2017-08-20T09:41:44.530Z,959.86
2017-08-20T09:42:44.528Z,959.94
2017-08-20T09:43:44.528Z,959.89
2017-08-20T09:44:44.526Z,959.9
2017-08-20T09:45:44.524Z,959.89
2017-08-20T09:46:44.526Z,959.85
2017-08-20T09:47:44.525Z,959.88
2017-08-20T09:48:44.522Z,959.85
2017-08-20T09:49:44.522Z,959.83
2017-08-20T09:50:44.521Z,959.91
2017-08-20T09:51:44.521Z,959.9
2017-08-20T09:52:44.536Z,959.91
2017-08-20T09:53:44.516Z,959.93
2017-08-20T09:54:44.517Z,959.94
2017-08-20T09:55:44.515Z,959.89
2017-08-20T09:56:44.514Z,959.9
2017-08-20T09:57:44.513Z,959.93
2017-08-20T09:58:44.511Z,959.92
2017-08-20T09:59:44.510Z,959.99
2017-08-20T10:00:44.510Z,959.89
2017-08-20T10:01:44.509Z,959.92
2017-08-20T10:02:44.508Z,959.88
2017-08-20T10:03:44.505Z,959.84
2017-08-20T10:04:44.505Z,959.91
2017-08-20T10:05:44.505Z,959.88
2017-08-20T10:06:44.518Z,959.93
2017-08-20T10:07:44.501Z,959.91
2017-08-20T10:08:44.500Z,959.93
2017-08-20T10:09:44.500Z,959.97
2017-08-20T10:10:44.498Z,959.89
2017-08-20T10:11:44.498Z,959.89
2017-08-20T10:12:44.496Z,959.94
2017-08-20T10:13:44.494Z,959.93
2017-08-20T10:14:44.494Z,959.94
2017-08-20T10:15:44.492Z,959.96
2017-08-20T10:16:44.491Z,959.96
2017-08-20T10:17:44.488Z,959.94
2017-08-20T10:18:44.486Z,959.98
2017-08-20T10:19:44.486Z,959.95
2017-08-20T10:20:44.484Z,959.95
2017-08-20T10:21:44.481Z,959.92
2017-08-20T10:22:44.481Z,959.93
2017-08-20T10:23:44.479Z,959.93
2017-08-20T10:24:44.490Z,959.88
2017-08-20T10:25:44.475Z,959.91
2017-08-20T10:26:44.471Z,959.88
2017-08-20T10:27:44.472Z,959.86
2017-08-20T10:28:44.467Z,959.81
2017-08-20T10:29:44.465Z,959.83
2017-08-20T10:30:44.464Z,959.86
2017-08-20T10:31:44.463Z,959.83
2017-08-20T10:32:44.460Z,959.78
2017-08-20T10:33:44.458Z,959.84
2017-08-20T10:34:44.457Z,959.8
2017-08-20T10:35:44.456Z,959.77
2017-08-20T10:36:44.453Z,959.72
2017-08-20T10:37:44.451Z,959.73
2017-08-20T10:38:44.465Z,959.73
2017-08-20T10:39:44.447Z,959.68
2017-08-20T10:40:44.451Z,959.68
2017-08-20T10:41:44.445Z,959.67
2017-08-20T10:42:44.444Z,959.65
2017-08-20T10:43:44.441Z,959.66
2017-08-20T10:44:44.439Z,959.62
2017-08-20T10:45:44.447Z,959.64
2017-08-20T10:46:44.435Z,959.69
2017-08-20T10:47:44.433Z,959.64
2017-08-20T10:48:44.434Z,959.66
2017-08-20T10:49:44.431Z,959.63
2017-08-20T10:50:44.431Z,959.66
2017-08-20T10:51:44.428Z,959.67
2017-08-20T10:52:44.426Z,959.7
2017-08-20T10:53:44.426Z,959.7
2017-08-20T10:54:44.425Z,959.71
2017-08-20T10:55:44.421Z,959.71
2017-08-20T10:56:44.421Z,959.72
2017-08-20T10:57:44.416Z,959.72
2017-08-20T10:58:44.413Z,959.73
2017-08-20T10:59:44.429Z,959.7
2017-08-20T11:00:44.410Z,959.73
2017-08-20T11:01:44.407Z,959.76
2017-08-20T11:02:44.405Z,959.71
2017-08-20T11:03:44.403Z,959.74
2017-08-20T11:04:44.421Z,959.71
2017-08-20T11:05:44.398Z,959.73
2017-08-20T11:06:44.395Z,959.72
2017-08-20T11:07:44.393Z,959.73
2017-08-20T11:08:44.391Z,959.76
2017-08-20T11:09:44.387Z,959.75
2017-08-20T11:10:44.394Z,959.78
2017-08-20T11:11:44.382Z,959.82
2017-08-20T11:12:44.379Z,959.81
2017-08-20T11:13:44.377Z,959.8
2017-08-20T11:14:44.375Z,959.8
2017-08-20T11:15:44.372Z,959.79
2017-08-20T11:16:44.369Z,959.78
2017-08-20T11:17:44.366Z,959.73
2017-08-20T11:18:44.363Z,959.81
2017-08-20T11:19:44.361Z,959.78
2017-08-20T11:20:44.358Z,959.78
2017-08-20T11:21:44.356Z,959.78
2017-08-20T11:22:44.353Z,959.8
2017-08-20T11:23:44.348Z,959.8
2017-08-20T11:24:44.345Z,959.84
2017-08-20T11:25:44.343Z,959.86
2017-08-20T11:26:44.340Z,959.86
2017-08-20T11:27:44.350Z,959.89
2017-08-20T11:28:44.338Z,959.91
2017-08-20T11:29:44.333Z,959.9
2017-08-20T11:30:44.326Z,959.87
2017-08-20T11:31:44.323Z,959.89
2017-08-20T11:32:44.321Z,959.91
2017-08-20T11:33:44.315Z,959.89
2017-08-20T11:34:44.334Z,959.89
2017-08-20T11:35:44.316Z,959.89
2017-08-20T11:36:44.306Z,959.9
2017-08-20T11:37:44.303Z,959.91
2017-08-20T11:38:44.299Z,959.91
2017-08-20T11:39:44.296Z,959.9
2017-08-20T11:40:44.291Z,959.87
2017-08-20T11:41:44.288Z,959.94
2017-08-20T11:42:44.286Z,959.87
2017-08-20T11:43:44.282Z,959.93
2017-08-20T11:44:44.279Z,959.9
2017-08-20T11:45:44.274Z,959.95
2017-08-20T11:46:44.271Z,959.93
2017-08-20T11:47:44.267Z,959.92
2017-08-20T11:48:44.264Z,959.92
2017-08-20T11:49:44.260Z,959.94
2017-08-20T11:50:44.256Z,959.85
2017-08-20T11:51:44.254Z,959.9
2017-08-20T11:52:44.250Z,959.93
2017-08-20T11:53:44.249Z,959.95
2017-08-20T11:54:44.244Z,959.94
2017-08-20T11:55:44.241Z,959.94
2017-08-20T11:56:44.236Z,959.99
2017-08-20T11:57:44.233Z,959.97
2017-08-20T11:58:44.230Z,959.96
2017-08-20T11:59:44.229Z,959.92
2017-08-20T12:00:44.243Z,959.92
2017-08-20T12:01:44.221Z,959.94
2017-08-20T12:02:44.219Z,959.91
2017-08-20T12:03:44.216Z,959.89
2017-08-20T12:04:44.212Z,959.92
2017-08-20T12:05:44.210Z,959.9
2017-08-20T12:06:44.208Z,959.93
2017-08-20T12:07:44.227Z,959.93
2017-08-20T12:08:44.202Z,959.86
2017-08-20T12:09:44.200Z,959.85
2017-08-20T12:10:44.198Z,959.85
2017-08-20T12:11:44.195Z,959.8
2017-08-20T12:12:44.192Z,959.82
2017-08-20T12:13:44.193Z,959.86
2017-08-20T12:14:44.191Z,959.79
2017-08-20T12:15:44.186Z,959.82
2017-08-20T12:16:44.183Z,959.84
2017-08-20T12:17:44.182Z,959.81
2017-08-20T12:18:44.180Z,959.82
2017-08-20T12:19:44.177Z,959.85
2017-08-20T12:20:44.175Z,959.86
2017-08-20T12:21:44.171Z,959.85
2017-08-20T12:22:44.171Z,959.9
2017-08-20T12:23:44.168Z,959.88
2017-08-20T12:24:44.167Z,959.87
2017-08-20T12:25:44.174Z,959.89
2017-08-20T12:26:44.161Z,959.86
2017-08-20T12:27:44.159Z,959.85
2017-08-20T12:28:44.157Z,959.8
2017-08-20T12:29:44.157Z,959.76
2017-08-20T12:30:44.153Z,959.77